Terminal Aerodrome Forecast
Issued by NWS

Home | Current Version | Previous Version | Text Only | Print | Product List | Glossary Off
Versions: 1 2 3 4 5 6 7 8 9 10 11 12 13 14 15 16 17 18 19

000
FTUS43 KMPX 251736
TAFRNH
TAF
KRNH 251736Z 2518/2618 22012KT P6SM SCT018 BKN028
     FM252000 23012G19KT P6SM SCT020 BKN040
     FM260300 23006KT 5SM BR OVC015
     FM260600 VRB04KT 2SM BR OVC004
     FM261330 34004KT 4SM BR OVC008
     FM261630 34004KT P6SM SCT008 OVC012=

USA.gov is the U.S. government's official web portal to all federal, state and local government web resources and services.